Time;durP1;ratioP1;P1;durP2;ratioP2;P2;SDS_P1;SDS_P2;PMS_P1;PMS_P2;Temp;Humidity;BMP_temperature;BMP_pressure;BME280_temperature;BME280_humidity;BME280_pressure;Samples;Min_cycle;Max_cycle;Signal;HPM_P1;HPM_P2
2021/08/05 00:00:41;;;;;;;1.27;1.00;;;25.50;52.80;;;;;;5045382;28;20698;-63
2021/08/05 00:03:06;;;;;;;1.63;0.90;;;25.50;52.80;;;;;;5051233;28;20028;-63
2021/08/05 00:05:32;;;;;;;1.60;0.85;;;25.40;52.70;;;;;;5056266;28;20677;-62
2021/08/05 00:07:58;;;;;;;1.10;0.95;;;25.50;52.80;;;;;;5060529;28;20090;-60
2021/08/05 00:10:23;;;;;;;1.90;1.02;;;25.40;52.80;;;;;;5051487;28;20016;-62
2021/08/05 00:12:49;;;;;;;1.42;1.00;;;25.50;52.80;;;;;;5048148;28;20052;-60
2021/08/05 00:15:14;;;;;;;1.60;0.88;;;25.40;52.80;;;;;;5046585;28;20581;-65
2021/08/05 00:17:40;;;;;;;1.48;0.98;;;25.40;52.80;;;;;;5066459;28;20020;-62
2021/08/05 00:20:06;;;;;;;1.45;0.95;;;25.40;52.80;;;;;;5053394;28;20475;-62
2021/08/05 00:22:32;;;;;;;1.08;0.90;;;25.40;52.80;;;;;;5064500;28;20025;-65
2021/08/05 00:24:57;;;;;;;1.38;0.90;;;25.40;52.80;;;;;;5058134;28;20034;-62
2021/08/05 00:27:23;;;;;;;1.05;0.90;;;25.40;52.80;;;;;;5042363;28;20029;-55
2021/08/05 00:29:49;;;;;;;1.30;0.90;;;25.40;52.80;;;;;;5048841;28;20036;-65
2021/08/05 00:32:15;;;;;;;1.15;0.85;;;25.40;52.80;;;;;;5050742;28;20052;-59
2021/08/05 00:34:41;;;;;;;1.50;0.90;;;25.40;52.80;;;;;;5049971;28;20021;-63
2021/08/05 00:37:06;;;;;;;1.17;0.80;;;25.40;52.80;;;;;;5047492;28;20361;-62
2021/08/05 00:39:32;;;;;;;1.30;0.90;;;25.40;52.80;;;;;;5050842;28;20125;-63
2021/08/05 00:41:58;;;;;;;1.80;1.00;;;25.40;52.90;;;;;;5058845;28;20090;-59
2021/08/05 00:44:23;;;;;;;2.05;1.00;;;25.40;52.80;;;;;;5050181;28;20420;-62
2021/08/05 00:46:49;;;;;;;1.42;1.05;;;25.40;52.90;;;;;;5046162;28;20045;-64
2021/08/05 00:49:14;;;;;;;1.50;0.90;;;25.40;52.80;;;;;;5048687;28;20043;-62
2021/08/05 00:51:40;;;;;;;1.55;0.95;;;25.30;52.80;;;;;;5048826;28;20448;-54
2021/08/05 00:54:08;;;;;;;1.08;0.80;;;25.30;52.80;;;;;;5047680;28;20029;-65
2021/08/05 00:56:33;;;;;;;0.98;0.88;;;25.30;52.80;;;;;;5049505;28;20036;-60
2021/08/05 00:58:59;;;;;;;1.33;1.00;;;25.30;52.80;;;;;;5046479;28;20041;-64
2021/08/05 01:01:31;;;;;;;1.80;0.88;;;25.30;52.80;;;;;;5048014;28;20036;-62
2021/08/05 01:03:58;;;;;;;1.33;0.90;;;25.30;52.80;;;;;;5048999;28;20053;-65
2021/08/05 01:06:38;;;;;;;1.33;0.90;;;25.30;52.80;;;;;;5047133;28;20033;-65
2021/08/05 01:09:24;;;;;;;1.48;1.00;;;25.30;52.90;;;;;;5057215;28;20056;-63
2021/08/05 01:12:03;;;;;;;1.40;1.10;;;25.30;52.80;;;;;;5041220;28;20052;-59
2021/08/05 01:14:33;;;;;;;1.15;0.85;;;25.30;52.80;;;;;;5028424;28;20036;-63
2021/08/05 01:17:01;;;;;;;2.05;0.80;;;25.30;52.80;;;;;;5045300;28;20037;-64
2021/08/05 01:19:52;;;;;;;1.67;0.98;;;25.30;52.90;;;;;;5047624;28;20039;-64
2021/08/05 01:22:39;;;;;;;0.93;0.80;;;25.20;52.80;;;;;;5059253;28;20535;-62
2021/08/05 01:25:09;;;;;;;1.20;0.80;;;25.20;52.80;;;;;;5053628;28;20035;-64
2021/08/05 01:27:35;;;;;;;1.40;0.90;;;25.20;52.80;;;;;;5047743;28;20139;-64
2021/08/05 01:30:04;;;;;;;1.48;0.82;;;25.20;52.80;;;;;;5049756;28;20044;-64
2021/08/05 01:32:30;;;;;;;1.47;0.90;;;25.20;53.40;;;;;;5052395;28;20047;-63
2021/08/05 01:34:56;;;;;;;1.13;0.90;;;25.20;52.90;;;;;;5050149;28;20614;-64
2021/08/05 01:37:24;;;;;;;1.33;0.88;;;25.20;52.90;;;;;;5058891;28;20039;-59
2021/08/05 01:39:51;;;;;;;2.13;1.00;;;25.20;52.90;;;;;;5056062;28;20041;-63
2021/08/05 01:42:19;;;;;;;1.50;0.98;;;25.20;52.80;;;;;;5045783;28;20495;-61
2021/08/05 01:44:46;;;;;;;2.75;0.90;;;25.20;52.90;;;;;;5062668;28;20103;-64
2021/08/05 01:47:13;;;;;;;1.20;0.90;;;25.20;52.90;;;;;;5061607;28;20029;-63
2021/08/05 01:49:39;;;;;;;1.30;0.90;;;25.10;52.80;;;;;;5048974;28;20511;-65
2021/08/05 01:52:07;;;;;;;1.45;0.88;;;25.10;52.80;;;;;;5035242;28;20029;-63
2021/08/05 01:54:33;;;;;;;1.38;0.90;;;25.10;52.80;;;;;;5048521;28;20098;-63
2021/08/05 01:56:59;;;;;;;1.38;0.90;;;25.10;52.80;;;;;;5045779;28;20378;-63
2021/08/05 01:59:25;;;;;;;0.88;0.80;;;25.10;52.80;;;;;;5055786;28;20070;-65
2021/08/05 02:01:50;;;;;;;1.25;0.90;;;25.10;52.90;;;;;;5050499;28;20043;-64
2021/08/05 02:04:59;;;;;;;1.50;0.98;;;25.10;52.90;;;;;;5050351;28;20047;-64
2021/08/05 02:07:30;;;;;;;1.13;0.77;;;25.10;52.90;;;;;;5023791;28;20049;-65
2021/08/05 02:10:17;;;;;;;1.50;0.85;;;25.10;52.90;;;;;;5049153;28;20044;-64
2021/08/05 02:12:47;;;;;;;1.20;0.90;;;25.10;52.90;;;;;;5039464;28;20025;-63
2021/08/05 02:15:14;;;;;;;1.85;1.00;;;25.10;52.90;;;;;;5047029;28;20029;-64
2021/08/05 02:17:42;;;;;;;1.83;1.00;;;25.10;52.90;;;;;;5063759;28;20028;-63
2021/08/05 02:20:10;;;;;;;1.00;0.80;;;25.10;52.90;;;;;;5054204;28;20088;-62
2021/08/05 02:22:40;;;;;;;1.38;0.90;;;25.00;52.80;;;;;;5062750;28;20059;-65
2021/08/05 02:25:08;;;;;;;0.90;0.80;;;25.10;52.90;;;;;;5057552;28;20028;-65
2021/08/05 02:27:33;;;;;;;1.27;0.90;;;25.10;52.90;;;;;;5045040;28;20036;-61
2021/08/05 02:30:00;;;;;;;1.80;1.02;;;25.10;53.00;;;;;;5048991;28;20473;-61
2021/08/05 02:32:27;;;;;;;1.38;0.98;;;25.10;52.90;;;;;;5050691;28;20060;-64
2021/08/05 02:34:55;;;;;;;1.30;0.80;;;25.00;52.90;;;;;;5056012;28;20086;-65
2021/08/05 02:37:20;;;;;;;0.95;0.80;;;25.00;52.90;;;;;;5062109;28;20395;-64
2021/08/05 02:39:46;;;;;;;1.90;0.90;;;25.00;52.90;;;;;;5047909;28;20040;-59
2021/08/05 02:42:13;;;;;;;0.90;0.77;;;25.00;53.00;;;;;;5040160;28;20456;-63
2021/08/05 02:44:39;;;;;;;1.42;0.93;;;25.00;52.90;;;;;;5036316;28;20033;-63
2021/08/05 02:47:05;;;;;;;0.90;0.80;;;25.00;52.90;;;;;;5045863;28;20645;-63
2021/08/05 02:49:32;;;;;;;1.02;0.80;;;25.00;52.90;;;;;;5052656;28;20032;-63
2021/08/05 02:51:58;;;;;;;1.08;0.85;;;25.00;52.90;;;;;;5047841;28;20021;-62
2021/08/05 02:54:24;;;;;;;0.93;0.80;;;25.00;53.00;;;;;;5062132;28;20503;-64
2021/08/05 02:56:50;;;;;;;1.25;0.90;;;25.00;52.90;;;;;;5063643;28;20074;-65
2021/08/05 02:59:15;;;;;;;1.10;1.00;;;25.00;52.90;;;;;;5054135;28;20048;-64
2021/08/05 03:01:41;;;;;;;1.23;0.88;;;25.00;52.90;;;;;;5054821;28;20283;-56
2021/08/05 03:04:08;;;;;;;1.35;0.90;;;25.00;52.90;;;;;;5040085;28;20033;-63
2021/08/05 03:06:34;;;;;;;1.13;0.90;;;24.90;52.90;;;;;;5050434;28;20126;-64
2021/08/05 03:09:00;;;;;;;0.90;0.80;;;25.00;53.00;;;;;;5049354;28;20169;-64
2021/08/05 03:11:25;;;;;;;1.30;0.80;;;24.90;52.90;;;;;;5058311;28;20108;-65
2021/08/05 03:13:51;;;;;;;0.90;0.77;;;25.00;52.90;;;;;;5048142;28;20021;-65
2021/08/05 03:16:17;;;;;;;1.40;1.00;;;24.90;52.90;;;;;;5047656;28;20370;-65
2021/08/05 03:18:43;;;;;;;1.10;0.90;;;24.90;52.90;;;;;;5062337;28;20033;-63
2021/08/05 03:21:08;;;;;;;1.25;0.88;;;24.90;52.90;;;;;;5053920;28;20033;-64
2021/08/05 03:23:34;;;;;;;1.30;1.00;;;24.90;52.90;;;;;;5044582;28;20044;-64
2021/08/05 03:26:00;;;;;;;1.08;0.80;;;25.00;53.00;;;;;;5044697;28;20120;-64
2021/08/05 03:28:25;;;;;;;1.02;0.90;;;24.90;52.90;;;;;;5047637;28;20025;-63
2021/08/05 03:30:51;;;;;;;1.00;0.82;;;24.90;53.00;;;;;;5048618;28;20052;-58
2021/08/05 03:33:16;;;;;;;0.90;0.80;;;24.90;52.90;;;;;;5054968;28;20031;-65
2021/08/05 03:35:42;;;;;;;0.85;0.75;;;24.90;53.00;;;;;;5046175;28;20032;-65
2021/08/05 03:38:08;;;;;;;1.50;0.90;;;24.90;53.00;;;;;;5048228;28;20040;-64
2021/08/05 03:40:34;;;;;;;1.38;0.90;;;24.90;53.00;;;;;;5046297;28;20029;-64
2021/08/05 03:42:59;;;;;;;1.25;0.80;;;24.90;53.00;;;;;;5052224;28;20065;-59
2021/08/05 03:45:25;;;;;;;1.77;0.80;;;24.90;53.00;;;;;;5049113;28;20044;-63
2021/08/05 03:47:51;;;;;;;2.38;1.00;;;24.90;53.00;;;;;;5046188;28;20024;-60
2021/08/05 03:50:17;;;;;;;1.20;0.90;;;24.90;53.00;;;;;;5045984;28;20202;-65
2021/08/05 03:52:42;;;;;;;1.10;0.90;;;24.80;53.00;;;;;;5048030;28;20021;-65
2021/08/05 03:55:15;;;;;;;1.10;0.85;;;24.80;53.00;;;;;;5050563;28;20029;-64
2021/08/05 03:57:41;;;;;;;0.80;0.80;;;24.90;53.00;;;;;;5058418;28;20064;-65
2021/08/05 04:00:10;;;;;;;0.98;0.77;;;24.80;53.00;;;;;;5045771;28;20021;-64
2021/08/05 04:02:36;;;;;;;0.98;0.88;;;24.80;53.00;;;;;;5050239;28;20063;-64
2021/08/05 04:05:02;;;;;;;1.08;0.80;;;24.80;53.00;;;;;;5048472;28;20033;-64
2021/08/05 04:07:28;;;;;;;1.95;0.95;;;24.80;53.00;;;;;;5048698;28;20621;-64
2021/08/05 04:09:53;;;;;;;1.08;0.80;;;24.80;53.10;;;;;;5046046;28;20048;-63
2021/08/05 04:12:19;;;;;;;1.10;0.90;;;24.80;53.00;;;;;;5041824;28;20036;-63
2021/08/05 04:14:44;;;;;;;1.33;0.80;;;24.80;53.00;;;;;;5043267;28;20039;-63
2021/08/05 04:17:10;;;;;;;1.25;0.70;;;24.80;53.00;;;;;;5040134;28;20044;-64
2021/08/05 04:19:35;;;;;;;0.63;0.63;;;24.80;53.00;;;;;;5043023;28;20503;-64
2021/08/05 04:22:01;;;;;;;1.15;0.80;;;24.80;53.00;;;;;;5046807;28;20025;-64
2021/08/05 04:24:27;;;;;;;1.08;0.80;;;24.80;53.00;;;;;;5044531;28;20135;-64
2021/08/05 04:26:53;;;;;;;1.02;0.77;;;24.80;53.00;;;;;;5048326;28;20112;-65
2021/08/05 04:29:18;;;;;;;1.13;0.90;;;24.80;53.60;;;;;;5046804;28;20728;-64
2021/08/05 04:31:44;;;;;;;1.13;0.80;;;24.80;53.60;;;;;;5038956;28;20756;-64
2021/08/05 04:34:10;;;;;;;1.33;0.80;;;24.80;53.00;;;;;;5046149;28;20656;-62
2021/08/05 04:36:35;;;;;;;1.38;0.90;;;24.80;53.00;;;;;;5053437;28;20071;-63
2021/08/05 04:39:01;;;;;;;1.30;0.77;;;24.80;53.10;;;;;;5044958;28;20552;-65
2021/08/05 04:41:27;;;;;;;0.80;0.70;;;24.80;53.10;;;;;;5041911;28;20479;-63
2021/08/05 04:43:53;;;;;;;1.00;0.77;;;24.70;53.00;;;;;;5042026;28;20037;-60
2021/08/05 04:46:18;;;;;;;1.23;0.90;;;24.80;53.10;;;;;;5041599;28;20040;-62
2021/08/05 04:48:44;;;;;;;1.02;0.80;;;24.70;53.10;;;;;;5041775;28;20028;-64
2021/08/05 04:51:10;;;;;;;1.15;0.90;;;24.70;53.00;;;;;;5044242;28;20029;-64
2021/08/05 04:53:35;;;;;;;1.35;1.00;;;24.70;53.00;;;;;;5040542;28;20103;-63
2021/08/05 04:56:01;;;;;;;0.75;0.68;;;24.70;53.10;;;;;;5038058;28;20075;-63
2021/08/05 04:58:26;;;;;;;0.63;0.60;;;24.70;53.10;;;;;;5034652;28;20128;-64
2021/08/05 05:00:53;;;;;;;1.02;0.70;;;24.70;53.10;;;;;;5036131;28;20052;-64
2021/08/05 05:03:19;;;;;;;0.85;0.70;;;24.70;53.10;;;;;;5040539;28;20045;-63
2021/08/05 05:05:44;;;;;;;1.27;0.70;;;24.70;53.10;;;;;;5045341;28;20199;-62
2021/08/05 05:08:24;;;;;;;1.00;0.80;;;24.70;53.10;;;;;;5043862;28;20033;-61
2021/08/05 05:10:50;;;;;;;;;;;24.70;53.10;;;;;;5044121;28;20033;-63
2021/08/05 05:13:16;;;;;;;0.82;0.65;;;24.70;53.10;;;;;;5031763;28;19950;-65
2021/08/05 05:15:42;;;;;;;0.90;0.73;;;24.70;53.10;;;;;;5043412;28;20060;-63
2021/08/05 05:18:09;;;;;;;1.17;0.70;;;24.70;53.10;;;;;;5045688;28;20464;-65
2021/08/05 05:20:35;;;;;;;1.10;0.80;;;24.70;53.10;;;;;;5043424;28;20035;-58
2021/08/05 05:23:02;;;;;;;1.30;0.90;;;24.70;53.10;;;;;;5035079;28;20097;-65
2021/08/05 05:25:28;;;;;;;1.13;0.80;;;24.70;53.10;;;;;;5044840;28;20047;-64
2021/08/05 05:27:54;;;;;;;1.05;0.80;;;24.60;53.10;;;;;;5042345;28;20033;-58
2021/08/05 05:30:20;;;;;;;1.10;0.80;;;24.60;53.10;;;;;;5034894;28;20052;-62
2021/08/05 05:32:47;;;;;;;0.90;0.80;;;24.60;53.10;;;;;;5039274;28;20036;-64
2021/08/05 05:35:15;;;;;;;0.65;0.65;;;24.60;53.10;;;;;;5035341;28;20061;-64
2021/08/05 05:37:41;;;;;;;1.42;0.70;;;24.60;53.10;;;;;;5040738;28;20048;-63
2021/08/05 05:40:07;;;;;;;1.08;0.70;;;24.60;53.10;;;;;;5042452;28;20033;-62
2021/08/05 05:42:33;;;;;;;1.00;0.80;;;24.60;53.10;;;;;;5040002;28;20044;-59
2021/08/05 05:44:59;;;;;;;0.70;0.70;;;24.60;53.10;;;;;;5045237;28;20479;-62
2021/08/05 05:47:25;;;;;;;1.60;0.70;;;24.60;53.10;;;;;;5038284;28;20033;-63
2021/08/05 05:49:51;;;;;;;0.63;0.63;;;24.60;53.10;;;;;;5037693;28;20028;-62
2021/08/05 05:52:16;;;;;;;0.98;0.70;;;24.60;53.10;;;;;;5043529;28;20039;-62
2021/08/05 05:54:42;;;;;;;1.08;0.80;;;24.60;53.20;;;;;;5040764;28;20067;-64
2021/08/05 05:57:08;;;;;;;1.42;0.90;;;24.60;53.20;;;;;;5040740;28;20703;-62
2021/08/05 05:59:34;;;;;;;1.15;0.65;;;24.60;53.20;;;;;;5040843;28;20036;-63
2021/08/05 06:02:00;;;;;;;0.85;0.70;;;24.60;53.20;;;;;;5039760;28;20041;-63
2021/08/05 06:04:27;;;;;;;1.20;0.77;;;24.60;53.20;;;;;;5042317;28;20439;-62
2021/08/05 06:06:53;;;;;;;2.45;0.85;;;24.60;53.20;;;;;;5039178;28;20040;-62
2021/08/05 06:09:19;;;;;;;1.20;0.82;;;24.60;53.20;;;;;;5037205;28;20071;-62
2021/08/05 06:11:44;;;;;;;3.70;1.60;;;24.60;53.20;;;;;;5036208;28;20034;-61
2021/08/05 06:14:10;;;;;;;3.20;1.98;;;24.50;52.70;;;;;;5039234;28;20499;-63
2021/08/05 06:16:35;;;;;;;3.88;1.95;;;24.30;52.80;;;;;;5040841;28;20652;-60
2021/08/05 06:19:02;;;;;;;3.58;1.80;;;24.10;53.30;;;;;;5026335;28;20030;-62
2021/08/05 06:21:28;;;;;;;3.50;1.85;;;24.20;53.50;;;;;;5038826;28;20025;-64
2021/08/05 06:23:53;;;;;;;4.68;1.90;;;24.00;53.60;;;;;;5042366;28;20474;-64
2021/08/05 06:26:21;;;;;;;3.00;1.80;;;24.00;53.70;;;;;;5046808;28;20051;-60
2021/08/05 06:28:46;;;;;;;2.95;1.83;;;24.00;53.90;;;;;;5047375;28;20033;-59
2021/08/05 06:31:13;;;;;;;3.85;1.70;;;24.00;53.90;;;;;;5048393;28;20159;-64
2021/08/05 06:33:39;;;;;;;4.32;2.35;;;24.00;53.80;;;;;;5046561;28;20120;-62
2021/08/05 06:36:05;;;;;;;3.55;2.03;;;23.90;53.80;;;;;;5047401;28;20108;-62
2021/08/05 06:38:30;;;;;;;4.75;2.25;;;23.80;53.90;;;;;;5047219;28;20037;-61
2021/08/05 06:40:56;;;;;;;3.67;2.30;;;23.80;54.70;;;;;;5041952;28;20133;-60
2021/08/05 06:43:21;;;;;;;4.22;2.08;;;23.60;54.40;;;;;;5043432;28;20029;-63
2021/08/05 06:45:47;;;;;;;2.60;1.80;;;23.60;54.50;;;;;;5040183;28;20407;-62
2021/08/05 06:48:13;;;;;;;4.18;2.40;;;23.60;54.60;;;;;;5041567;28;20043;-62
2021/08/05 06:50:38;;;;;;;3.80;2.50;;;23.50;55.10;;;;;;5038624;28;20033;-64
2021/08/05 06:53:04;;;;;;;3.42;1.88;;;23.40;55.20;;;;;;5041628;28;20458;-62
2021/08/05 06:55:29;;;;;;;3.47;1.70;;;23.40;55.20;;;;;;5041425;28;20069;-61
2021/08/05 06:57:55;;;;;;;2.20;1.58;;;23.40;55.20;;;;;;5042807;28;20033;-65
2021/08/05 07:00:21;;;;;;;3.03;1.30;;;23.50;55.00;;;;;;5038548;28;20033;-63
2021/08/05 07:02:46;;;;;;;2.00;1.13;;;23.50;54.80;;;;;;5041369;28;20419;-63
2021/08/05 07:05:12;;;;;;;2.28;1.20;;;23.50;54.90;;;;;;5043744;28;20186;-64
2021/08/05 07:07:38;;;;;;;1.73;1.20;;;23.60;54.70;;;;;;5044282;28;20119;-63
2021/08/05 07:10:05;;;;;;;2.03;1.20;;;23.60;54.60;;;;;;5041176;28;20587;-65
2021/08/05 07:12:32;;;;;;;2.08;1.13;;;23.60;54.50;;;;;;5038021;28;20464;-63
2021/08/05 07:14:58;;;;;;;1.50;0.98;;;23.70;54.50;;;;;;5043696;28;20066;-63
2021/08/05 07:17:23;;;;;;;2.00;1.05;;;23.70;54.50;;;;;;5039766;28;20029;-63
2021/08/05 07:19:50;;;;;;;2.10;1.02;;;23.70;54.40;;;;;;5040093;28;20498;-65
2021/08/05 07:22:16;;;;;;;3.55;1.00;;;23.70;54.30;;;;;;5043076;28;20561;-62
2021/08/05 07:24:41;;;;;;;1.40;0.90;;;23.70;54.30;;;;;;5041118;28;20041;-62
2021/08/05 07:27:07;;;;;;;2.00;1.08;;;23.70;54.20;;;;;;5041035;28;20765;-65
2021/08/05 07:29:33;;;;;;;2.47;1.10;;;23.70;54.20;;;;;;5047834;28;20356;-62
2021/08/05 07:32:06;;;;;;;2.35;1.02;;;23.70;54.20;;;;;;5060483;28;20041;-66
2021/08/05 07:34:33;;;;;;;1.77;0.98;;;23.70;54.20;;;;;;5047246;28;20037;-62
2021/08/05 07:36:58;;;;;;;1.35;1.00;;;23.70;54.20;;;;;;5044199;28;20571;-63
2021/08/05 07:39:24;;;;;;;0.93;0.82;;;23.70;54.20;;;;;;5044983;28;20059;-63
2021/08/05 07:41:50;;;;;;;2.10;1.00;;;23.70;54.20;;;;;;5040142;28;20048;-63
2021/08/05 07:44:16;;;;;;;3.47;1.40;;;23.70;54.10;;;;;;5042420;28;20040;-65
2021/08/05 07:46:43;;;;;;;2.22;1.00;;;23.80;54.20;;;;;;5044351;28;20487;-61
2021/08/05 07:49:10;;;;;;;2.10;0.90;;;23.70;54.10;;;;;;5044227;28;20033;-63
2021/08/05 07:51:36;;;;;;;1.35;0.90;;;23.80;54.20;;;;;;5048853;28;20031;-62
2021/08/05 07:54:02;;;;;;;1.88;1.15;;;23.80;54.20;;;;;;5041533;28;20516;-62
2021/08/05 07:56:27;;;;;;;1.45;0.88;;;23.80;54.20;;;;;;5047025;28;20395;-63
2021/08/05 07:58:53;;;;;;;1.88;0.90;;;23.80;54.20;;;;;;5042688;28;20396;-63
2021/08/05 08:01:18;;;;;;;1.23;0.90;;;23.80;54.20;;;;;;5040524;28;20037;-60
2021/08/05 08:03:44;;;;;;;1.40;1.00;;;23.80;54.20;;;;;;5042075;28;20036;-62
2021/08/05 08:06:10;;;;;;;1.70;1.00;;;23.80;54.30;;;;;;5042409;28;20803;-63
2021/08/05 08:08:35;;;;;;;1.48;1.00;;;23.80;54.30;;;;;;5038201;28;20028;-62
2021/08/05 08:11:01;;;;;;;2.53;1.15;;;23.80;54.30;;;;;;5045092;28;20057;-63
2021/08/05 08:13:28;;;;;;;1.35;0.90;;;23.80;54.30;;;;;;5042956;28;20037;-59
2021/08/05 08:15:54;;;;;;;1.85;1.00;;;23.80;54.30;;;;;;5042998;28;20098;-64
2021/08/05 08:18:20;;;;;;;2.15;0.98;;;23.80;54.30;;;;;;5040089;28;20025;-62
2021/08/05 08:20:46;;;;;;;1.70;0.90;;;23.80;54.30;;;;;;5041860;28;20075;-62
2021/08/05 08:23:12;;;;;;;1.88;1.00;;;23.80;54.40;;;;;;5040136;28;20156;-62
2021/08/05 08:25:37;;;;;;;1.42;0.93;;;23.80;54.20;;;;;;5045175;28;20432;-63
2021/08/05 08:28:04;;;;;;;1.67;1.05;;;23.80;54.30;;;;;;5038901;28;20029;-61
2021/08/05 08:30:29;;;;;;;1.15;0.90;;;23.80;54.20;;;;;;5036780;28;20040;-62
2021/08/05 08:32:55;;;;;;;1.40;0.93;;;23.90;54.30;;;;;;5044824;28;20669;-66
2021/08/05 08:35:21;;;;;;;1.35;0.90;;;23.90;54.30;;;;;;5039682;28;20024;-62
2021/08/05 08:37:46;;;;;;;1.30;0.95;;;23.90;54.30;;;;;;5040740;28;20075;-63
2021/08/05 08:40:13;;;;;;;1.05;0.80;;;23.90;54.20;;;;;;5040559;28;20108;-58
2021/08/05 08:42:40;;;;;;;1.77;1.05;;;23.80;54.20;;;;;;5039863;28;20449;-62
2021/08/05 08:45:08;;;;;;;1.52;0.80;;;23.90;54.20;;;;;;5037905;28;20067;-62
2021/08/05 08:47:35;;;;;;;1.67;1.17;;;23.90;54.20;;;;;;5039056;28;20368;-61
2021/08/05 08:50:00;;;;;;;2.08;1.00;;;23.90;54.20;;;;;;5038657;28;20090;-61
2021/08/05 08:52:29;;;;;;;1.60;0.90;;;23.90;54.20;;;;;;5045139;28;20037;-65
2021/08/05 08:54:57;;;;;;;1.00;0.85;;;23.90;54.10;;;;;;5042027;28;20069;-62
2021/08/05 08:57:29;;;;;;;1.45;0.90;;;23.90;54.10;;;;;;5033759;28;20096;-61
2021/08/05 08:59:56;;;;;;;1.35;0.93;;;23.90;54.10;;;;;;5042337;28;20028;-63
2021/08/05 09:02:22;;;;;;;1.35;1.00;;;23.90;54.10;;;;;;5045779;28;20036;-65
2021/08/05 09:04:48;;;;;;;1.67;0.90;;;23.90;54.10;;;;;;5046771;28;20542;-63
2021/08/05 09:07:13;;;;;;;1.13;0.90;;;23.90;54.10;;;;;;5045992;28;20440;-64
2021/08/05 09:09:39;;;;;;;1.75;1.00;;;23.90;54.10;;;;;;5048714;28;20128;-65
2021/08/05 09:12:08;;;;;;;1.50;1.00;;;23.90;54.10;;;;;;5037892;28;20108;-63
2021/08/05 09:14:51;;;;;;;1.35;0.93;;;24.00;54.10;;;;;;5045867;28;20146;-63
2021/08/05 09:17:16;;;;;;;1.63;1.10;;;23.90;54.10;;;;;;5040360;28;20091;-65
2021/08/05 09:19:42;;;;;;;1.23;0.80;;;23.90;54.10;;;;;;5046091;28;20029;-63
2021/08/05 09:22:08;;;;;;;1.50;0.90;;;23.90;54.00;;;;;;5042887;28;20115;-66
2021/08/05 09:24:33;;;;;;;1.90;1.10;;;23.90;54.00;;;;;;5048196;28;20057;-65
2021/08/05 09:27:02;;;;;;;1.42;1.10;;;24.00;54.10;;;;;;5043366;28;20028;-62
2021/08/05 09:29:29;;;;;;;2.10;1.00;;;23.90;54.00;;;;;;5044747;28;20454;-63
2021/08/05 09:32:00;;;;;;;1.33;0.90;;;24.00;54.10;;;;;;5042917;28;20128;-62
2021/08/05 09:34:39;;;;;;;1.13;0.88;;;24.00;54.10;;;;;;5047990;28;20098;-66
2021/08/05 09:37:10;;;;;;;1.90;1.00;;;23.90;54.00;;;;;;5044042;28;20029;-62
2021/08/05 09:39:41;;;;;;;1.08;0.80;;;24.00;54.00;;;;;;5043309;28;20035;-62
2021/08/05 09:42:11;;;;;;;1.33;1.00;;;23.90;53.90;;;;;;5037095;28;20118;-62
2021/08/05 09:44:37;;;;;;;1.10;0.98;;;24.00;54.00;;;;;;5046043;28;20037;-62
2021/08/05 09:47:04;;;;;;;0.90;0.80;;;24.00;54.00;;;;;;5037807;28;20040;-61
2021/08/05 09:49:30;;;;;;;1.70;1.13;;;24.00;54.00;;;;;;5032194;28;20108;-63
2021/08/05 09:51:57;;;;;;;1.10;0.90;;;24.00;54.00;;;;;;5031225;28;20207;-62
2021/08/05 09:54:23;;;;;;;1.27;1.00;;;24.00;54.00;;;;;;5035729;28;20028;-62
2021/08/05 09:56:55;;;;;;;1.73;0.95;;;24.00;54.00;;;;;;5043874;28;20029;-64
2021/08/05 09:59:21;;;;;;;1.48;1.00;;;24.00;54.00;;;;;;5044762;28;20468;-62
2021/08/05 10:02:02;;;;;;;2.10;1.00;;;24.00;54.00;;;;;;5041936;28;20087;-65
2021/08/05 10:04:34;;;;;;;1.30;0.90;;;24.00;54.00;;;;;;5038423;28;20029;-63
2021/08/05 10:07:07;;;;;;;1.23;0.90;;;24.00;54.00;;;;;;5036289;28;20040;-62
2021/08/05 10:09:35;;;;;;;1.65;1.00;;;24.00;54.00;;;;;;5043710;28;20094;-61
2021/08/05 10:12:19;;;;;;;1.42;0.80;;;24.00;54.00;;;;;;5041930;28;20127;-64
2021/08/05 10:14:46;;;;;;;1.30;1.00;;;24.00;53.90;;;;;;5041923;28;20025;-65
2021/08/05 10:17:12;;;;;;;1.20;1.00;;;24.00;53.90;;;;;;5038697;28;20017;-62
2021/08/05 10:19:40;;;;;;;1.30;0.90;;;24.00;53.90;;;;;;5041452;28;20083;-64
2021/08/05 10:22:07;;;;;;;2.38;1.00;;;24.00;53.90;;;;;;5040580;28;20083;-62
2021/08/05 10:24:37;;;;;;;1.58;0.90;;;24.00;53.90;;;;;;5038929;28;20067;-61
2021/08/05 10:27:05;;;;;;;1.27;0.90;;;24.00;53.90;;;;;;5032884;28;20628;-62
2021/08/05 10:29:31;;;;;;;1.35;1.00;;;24.00;53.90;;;;;;5039437;28;20174;-64
2021/08/05 10:31:58;;;;;;;1.70;1.10;;;24.00;53.90;;;;;;5037072;28;20029;-61
2021/08/05 10:34:24;;;;;;;1.40;1.10;;;24.00;53.90;;;;;;5036083;28;20029;-62
2021/08/05 10:36:50;;;;;;;1.85;1.00;;;24.00;53.90;;;;;;5037964;28;20480;-60
2021/08/05 10:39:16;;;;;;;1.15;0.98;;;24.10;53.90;;;;;;5040654;28;20040;-60
2021/08/05 10:41:42;;;;;;;1.13;0.85;;;24.10;53.90;;;;;;5035139;28;20044;-61
2021/08/05 10:44:08;;;;;;;1.15;0.90;;;24.00;53.90;;;;;;5029352;28;20106;-62
2021/08/05 10:46:34;;;;;;;1.27;0.90;;;24.10;53.90;;;;;;5034321;28;20036;-61
2021/08/05 10:49:03;;;;;;;1.33;0.95;;;24.00;53.80;;;;;;5037198;28;20086;-62
2021/08/05 10:51:34;;;;;;;1.10;0.80;;;24.10;53.80;;;;;;5039707;28;20048;-62
2021/08/05 10:54:00;;;;;;;1.13;0.90;;;24.00;53.80;;;;;;5026149;28;20111;-61
2021/08/05 10:56:30;;;;;;;1.75;1.00;;;24.00;53.70;;;;;;5034976;28;20090;-62
2021/08/05 10:59:12;;;;;;;1.45;1.00;;;24.10;53.80;;;;;;5036649;28;20021;-62
2021/08/05 11:01:45;;;;;;;1.67;0.90;;;24.10;53.80;;;;;;5038823;28;21908;-59
2021/08/05 11:04:33;;;;;;;1.20;1.00;;;24.10;53.80;;;;;;5036870;28;20069;-61
2021/08/05 11:07:20;;;;;;;1.15;0.90;;;24.10;53.80;;;;;;5043464;28;20253;-61
2021/08/05 11:09:47;;;;;;;0.80;0.80;;;24.10;53.90;;;;;;5040295;28;20025;-61
2021/08/05 11:12:35;;;;;;;1.08;0.90;;;24.10;53.90;;;;;;5041988;28;20029;-61
2021/08/05 11:15:01;;;;;;;1.95;1.13;;;24.10;53.90;;;;;;5025297;28;20033;-61
2021/08/05 11:17:26;;;;;;;1.27;0.90;;;24.10;53.90;;;;;;5039410;28;20063;-60
2021/08/05 11:20:18;;;;;;;1.45;1.00;;;24.10;53.90;;;;;;5043499;28;20034;-61
2021/08/05 11:22:45;;;;;;;1.73;1.00;;;24.10;53.90;;;;;;5039941;28;20042;-60
2021/08/05 11:25:11;;;;;;;1.73;1.00;;;24.10;53.90;;;;;;5046186;28;20045;-65
2021/08/05 11:27:42;;;;;;;1.50;1.00;;;24.10;53.90;;;;;;5037454;28;20412;-65
2021/08/05 11:30:48;;;;;;;1.30;0.93;;;24.10;53.90;;;;;;5043894;28;20036;-62
2021/08/05 11:33:38;;;;;;;1.27;1.00;;;24.10;54.00;;;;;;4984376;28;20045;-62
2021/08/05 11:36:31;;;;;;;2.00;1.08;;;24.10;54.00;;;;;;4974542;28;20117;-63
2021/08/05 11:38:59;;;;;;;1.40;0.95;;;24.10;54.00;;;;;;5030817;28;20134;-63
2021/08/05 11:41:57;;;;;;;2.40;1.00;;;24.10;54.00;;;;;;5036166;28;20039;-62
2021/08/05 11:44:47;;;;;;;1.10;1.00;;;24.10;54.00;;;;;;5044476;28;20091;-63
2021/08/05 11:47:16;;;;;;;1.20;0.90;;;24.10;54.00;;;;;;5038711;28;20033;-61
2021/08/05 11:49:49;;;;;;;1.30;1.00;;;24.10;54.50;;;;;;5044126;28;20025;-62
2021/08/05 11:52:27;;;;;;;1.27;0.95;;;24.10;54.00;;;;;;5040908;28;20503;-64
2021/08/05 11:54:58;;;;;;;1.73;1.00;;;24.20;54.00;;;;;;5046542;28;20039;-61
2021/08/05 11:57:25;;;;;;;1.30;1.00;;;24.10;54.00;;;;;;5041852;28;20437;-62
2021/08/05 11:59:54;;;;;;;1.38;0.95;;;24.10;54.00;;;;;;5039226;28;20039;-61
2021/08/05 12:02:21;;;;;;;1.20;0.90;;;24.10;54.00;;;;;;5038463;28;20041;-61
2021/08/05 12:04:49;;;;;;;0.98;0.80;;;24.10;54.00;;;;;;5039750;28;20063;-62
2021/08/05 12:07:23;;;;;;;1.10;0.93;;;24.20;54.00;;;;;;5039507;28;20037;-62
2021/08/05 12:10:09;;;;;;;1.40;1.00;;;24.20;54.00;;;;;;5034732;28;20108;-62
2021/08/05 12:12:49;;;;;;;1.55;1.10;;;24.20;54.00;;;;;;5038645;28;20029;-62
2021/08/05 12:15:22;;;;;;;1.52;1.00;;;24.20;54.00;;;;;;5039387;28;20025;-62
2021/08/05 12:17:50;;;;;;;1.23;0.90;;;24.10;53.90;;;;;;5040848;28;20135;-61
2021/08/05 12:20:40;;;;;;;1.33;1.00;;;24.10;53.90;;;;;;5041501;28;20048;-62
2021/08/05 12:23:09;;;;;;;1.50;1.10;;;24.20;53.90;;;;;;5045126;28;20443;-61
2021/08/05 12:26:10;;;;;;;1.40;1.00;;;24.20;53.90;;;;;;5042905;28;20436;-62
2021/08/05 12:28:37;;;;;;;1.15;0.90;;;24.10;53.80;;;;;;5045523;28;20552;-62
2021/08/05 12:31:06;;;;;;;1.10;0.90;;;24.20;53.80;;;;;;5052822;28;20238;-64
2021/08/05 12:33:40;;;;;;;1.42;1.00;;;24.20;53.80;;;;;;5046195;28;20051;-61
2021/08/05 12:36:13;;;;;;;1.65;0.90;;;24.10;53.80;;;;;;5045361;28;20063;-62
2021/08/05 12:38:55;;;;;;;1.80;0.95;;;24.10;53.70;;;;;;5047218;28;20025;-62
2021/08/05 12:41:50;;;;;;;0.93;0.82;;;24.20;53.70;;;;;;5043382;28;20128;-64
2021/08/05 12:44:18;;;;;;;1.02;0.90;;;24.20;53.60;;;;;;5038761;28;20039;-62
2021/08/05 12:46:53;;;;;;;1.30;0.88;;;24.20;53.60;;;;;;5037387;28;20544;-60
2021/08/05 12:49:19;;;;;;;1.60;1.05;;;24.20;53.60;;;;;;5046748;28;20029;-61
2021/08/05 12:51:45;;;;;;;1.35;0.93;;;24.20;53.60;;;;;;5043459;28;20051;-63
2021/08/05 12:54:19;;;;;;;1.30;0.90;;;24.20;53.50;;;;;;5042495;28;20374;-64